Time;durP1;ratioP1;P1;durP2;ratioP2;P2;SDS_P1;SDS_P2;PMS_P1;PMS_P2;Temp;Humidity;BMP_temperature;BMP_pressure;BME280_temperature;BME280_humidity;BME280_pressure;Samples;Min_cycle;Max_cycle;Signal;HPM_P1;HPM_P2
2021/03/02 00:01:12;;;;;;;18.48;9.80;;;;;;;3.65;57.12;97741.13;5072748;28;20048;-78
2021/03/02 00:03:39;;;;;;;15.32;8.88;;;;;;;3.60;56.94;97741.56;5072766;28;20055;-78
2021/03/02 00:06:07;;;;;;;16.27;9.13;;;;;;;3.54;57.47;97738.72;5072662;28;20388;-78
2021/03/02 00:08:36;;;;;;;17.20;9.90;;;;;;;3.51;57.42;97739.00;5072626;28;20052;-78
2021/03/02 00:11:03;;;;;;;17.92;8.95;;;;;;;3.47;57.36;97740.25;5073356;28;20052;-78
2021/03/02 00:13:31;;;;;;;15.43;9.10;;;;;;;3.45;57.62;97745.59;5072609;28;20028;-77
2021/03/02 00:16:00;;;;;;;17.75;9.75;;;;;;;3.44;57.80;97746.53;5072716;28;20358;-78
2021/03/02 00:18:32;;;;;;;19.70;9.60;;;;;;;3.43;57.93;97755.28;5072387;28;20044;-78
2021/03/02 00:21:13;;;;;;;16.67;8.82;;;;;;;3.41;58.88;97759.78;5073206;28;20495;-77
2021/03/02 00:23:42;;;;;;;18.50;9.70;;;;;;;3.36;57.98;97752.44;5060695;28;20469;-78
2021/03/02 00:26:12;;;;;;;19.25;9.48;;;;;;;3.31;58.14;97752.00;5072505;28;20404;-78
2021/03/02 00:28:39;;;;;;;17.98;9.65;;;;;;;3.29;57.81;97747.94;5076127;28;20036;-77
2021/03/02 00:31:07;;;;;;;16.25;9.45;;;;;;;3.25;58.29;97753.41;5075639;28;20390;-78
2021/03/02 00:33:35;;;;;;;19.10;10.18;;;;;;;3.22;58.16;97745.91;5075480;28;20487;-78
2021/03/02 00:36:01;;;;;;;18.40;9.70;;;;;;;3.21;58.34;97746.88;5076450;28;20037;-77
2021/03/02 00:38:27;;;;;;;19.73;11.30;;;;;;;3.17;58.28;97742.06;5076539;28;20048;-78
2021/03/02 00:40:54;;;;;;;17.90;10.32;;;;;;;3.14;58.36;97750.16;5075960;28;20041;-78
2021/03/02 00:43:20;;;;;;;19.23;10.65;;;;;;;3.08;58.48;97750.69;5074595;28;20369;-78
2021/03/02 00:45:46;;;;;;;22.27;10.23;;;;;;;3.04;58.41;97752.75;5076297;28;20041;-78
2021/03/02 00:48:12;;;;;;;19.60;10.18;;;;;;;3.03;58.72;97754.53;5076043;28;20043;-78
2021/03/02 00:50:38;;;;;;;18.85;10.95;;;;;;;3.01;58.73;97753.84;5075876;28;20044;-78
2021/03/02 00:53:05;;;;;;;18.08;10.23;;;;;;;2.98;58.87;97753.28;5076096;28;20040;-78
2021/03/02 00:55:31;;;;;;;19.67;10.30;;;;;;;2.93;58.80;97753.72;5075410;28;20041;-78
2021/03/02 00:57:57;;;;;;;17.88;9.38;;;;;;;2.90;58.79;97754.00;5075591;28;20041;-78
2021/03/02 01:00:24;;;;;;;17.02;10.45;;;;;;;2.84;58.98;97747.56;5057542;28;20032;-78
2021/03/02 01:02:51;;;;;;;18.55;9.77;;;;;;;2.81;58.97;97752.19;5075669;28;20515;-78
2021/03/02 01:05:17;;;;;;;18.08;9.75;;;;;;;2.78;59.13;97760.25;5075957;28;20503;-78
2021/03/02 01:07:44;;;;;;;18.23;10.05;;;;;;;2.73;59.30;97750.31;5075870;28;20052;-78
2021/03/02 01:10:11;;;;;;;18.92;11.18;;;;;;;2.71;59.23;97751.38;5075512;28;20542;-78
2021/03/02 01:12:37;;;;;;;17.23;9.43;;;;;;;2.69;59.38;97748.94;5075255;28;20052;-78
2021/03/02 01:15:07;;;;;;;19.23;11.15;;;;;;;2.69;59.54;97758.47;5075339;28;20388;-78
2021/03/02 01:17:34;;;;;;;18.45;11.18;;;;;;;2.66;59.59;97748.38;5074350;28;20407;-78
2021/03/02 01:20:00;;;;;;;18.08;10.85;;;;;;;2.62;59.48;97743.50;5075242;28;20032;-78
2021/03/02 01:22:26;;;;;;;20.35;10.05;;;;;;;2.58;59.67;97751.66;5074132;28;20040;-78
2021/03/02 01:24:52;;;;;;;19.67;10.35;;;;;;;2.54;59.83;97743.34;5074007;28;20457;-78
2021/03/02 01:27:19;;;;;;;18.13;9.73;;;;;;;2.53;59.83;97744.28;5075229;28;20400;-78
2021/03/02 01:29:45;;;;;;;20.10;10.45;;;;;;;2.50;60.01;97747.16;5074972;28;20056;-78
2021/03/02 01:32:11;;;;;;;17.33;9.75;;;;;;;2.46;59.98;97743.19;5075098;28;20043;-78
2021/03/02 01:34:37;;;;;;;17.35;9.48;;;;;;;2.43;60.14;97743.47;5075220;28;20037;-78
2021/03/02 01:37:03;;;;;;;18.50;9.90;;;;;;;2.40;60.01;97736.78;5074725;28;20040;-78
2021/03/02 01:39:30;;;;;;;22.42;10.55;;;;;;;2.39;60.14;97749.84;5074578;28;20457;-78
2021/03/02 01:41:58;;;;;;;18.98;10.60;;;;;;;2.35;60.26;97738.97;5074685;28;20033;-78
2021/03/02 01:44:26;;;;;;;17.05;10.13;;;;;;;2.31;60.27;97745.38;5075111;28;20063;-78
2021/03/02 01:46:52;;;;;;;21.08;10.68;;;;;;;2.28;60.24;97739.63;5074854;28;20040;-78
2021/03/02 01:49:19;;;;;;;22.23;10.88;;;;;;;2.28;60.46;97737.03;5074596;28;20059;-78
2021/03/02 01:51:47;;;;;;;20.85;11.23;;;;;;;2.24;60.69;97744.25;5074604;28;20385;-78
2021/03/02 01:54:14;;;;;;;19.40;11.50;;;;;;;2.22;60.73;97733.19;5074486;28;20029;-78
2021/03/02 01:56:42;;;;;;;19.52;10.77;;;;;;;2.19;60.75;97742.06;5074952;28;20047;-78
2021/03/02 01:59:08;;;;;;;18.27;10.25;;;;;;;2.17;60.93;97737.97;5074270;28;20388;-78
2021/03/02 02:01:36;;;;;;;21.77;11.45;;;;;;;2.13;60.90;97739.19;5074346;28;20397;-78
2021/03/02 02:04:12;;;;;;;19.80;10.95;;;;;;;2.08;61.29;97743.94;5074780;28;20044;-78
2021/03/02 02:07:05;;;;;;;18.95;10.55;;;;;;;2.04;61.54;97740.81;5074569;28;20504;-78
2021/03/02 02:09:51;;;;;;;19.48;10.13;;;;;;;2.02;61.57;97740.94;5074140;28;20067;-78
2021/03/02 02:12:45;;;;;;;21.30;11.65;;;;;;;1.97;61.15;97726.75;5074702;28;20047;-78
2021/03/02 02:15:19;;;;;;;23.08;12.23;;;;;;;1.93;61.63;97730.53;5057862;28;20048;-78
2021/03/02 02:18:09;;;;;;;22.93;12.27;;;;;;;1.88;62.10;97735.31;5074368;28;20366;-78
2021/03/02 02:20:35;;;;;;;25.42;11.32;;;;;;;1.86;61.19;97735.44;5073714;28;20640;-78
2021/03/02 02:23:13;;;;;;;22.15;12.48;;;;;;;1.83;61.44;97736.50;5074154;28;20040;-78
2021/03/02 02:26:10;;;;;;;24.30;12.15;;;;;;;1.80;61.48;97736.75;5067023;28;20033;-78
2021/03/02 02:28:38;;;;;;;23.17;12.00;;;;;;;1.76;61.27;97729.41;5065159;28;20039;-78
2021/03/02 02:31:07;;;;;;;22.98;11.10;;;;;;;1.75;61.51;97736.34;5073868;28;20029;-78
2021/03/02 02:33:36;;;;;;;22.13;11.57;;;;;;;1.75;61.62;97736.34;5074197;28;20040;-78
2021/03/02 02:36:06;;;;;;;20.73;11.63;;;;;;;1.72;61.41;97736.63;5073720;28;20033;-78
2021/03/02 02:38:35;;;;;;;24.10;11.60;;;;;;;1.69;61.35;97736.88;5074051;28;20048;-78
2021/03/02 02:41:05;;;;;;;22.40;11.75;;;;;;;1.65;61.50;97735.47;5073916;28;20465;-78
2021/03/02 02:43:32;;;;;;;22.50;11.35;;;;;;;1.59;61.51;97734.22;5073812;28;20028;-78
2021/03/02 02:45:59;;;;;;;22.00;11.52;;;;;;;1.55;61.53;97732.03;5073619;28;20039;-78
2021/03/02 02:48:27;;;;;;;23.05;12.25;;;;;;;1.51;61.66;97739.25;5073696;28;20041;-78
2021/03/02 02:50:57;;;;;;;17.77;10.70;;;;;;;1.48;61.67;97741.25;5071998;28;20044;-78
2021/03/02 02:53:34;;;;;;;22.50;11.55;;;;;;;1.46;61.74;97735.41;5064107;28;20037;-78
2021/03/02 02:56:02;;;;;;;19.90;10.30;;;;;;;1.40;61.76;97737.53;5073672;28;20036;-78
2021/03/02 02:58:59;;;;;;;19.50;11.27;;;;;;;1.33;62.50;97744.19;5073439;28;20472;-78
2021/03/02 03:01:32;;;;;;;22.42;11.70;;;;;;;1.28;62.01;97738.56;5073305;28;20047;-78
2021/03/02 03:04:02;;;;;;;21.67;12.32;;;;;;;1.26;62.10;97734.47;5073828;28;20465;-78
2021/03/02 03:06:31;;;;;;;21.77;11.90;;;;;;;1.21;62.21;97738.25;5073429;28;20043;-78
2021/03/02 03:09:01;;;;;;;25.90;12.23;;;;;;;1.17;62.16;97734.28;5072302;28;20056;-78
2021/03/02 03:11:35;;;;;;;22.15;11.32;;;;;;;1.14;62.39;97737.13;5073230;28;20123;-78
2021/03/02 03:14:04;;;;;;;24.80;12.15;;;;;;;1.12;62.24;97733.84;5062674;28;20400;-78
2021/03/02 03:16:33;;;;;;;24.52;12.13;;;;;;;1.09;62.27;97733.28;5073272;28;20040;-78
2021/03/02 03:19:01;;;;;;;21.48;11.88;;;;;;;1.08;62.27;97739.41;5072827;28;20045;-78
2021/03/02 03:21:28;;;;;;;22.88;11.95;;;;;;;1.06;62.24;97738.72;5073066;28;20044;-78
2021/03/02 03:23:56;;;;;;;25.73;12.48;;;;;;;1.02;62.31;97738.94;5072881;28;20044;-78
2021/03/02 03:26:26;;;;;;;23.70;12.50;;;;;;;0.99;62.58;97731.47;5073215;28;20389;-78
2021/03/02 03:28:55;;;;;;;24.77;12.75;;;;;;;0.98;62.75;97729.00;5072543;28;20040;-78
2021/03/02 03:31:21;;;;;;;29.05;13.80;;;;;;;0.95;62.57;97732.66;5073296;28;20025;-78
2021/03/02 03:33:51;;;;;;;24.00;11.93;;;;;;;0.93;62.46;97734.53;5072682;28;20048;-78
2021/03/02 03:36:17;;;;;;;23.80;12.57;;;;;;;0.91;62.50;97739.00;5072587;28;20044;-78
2021/03/02 03:38:43;;;;;;;23.38;13.15;;;;;;;0.91;62.55;97727.88;5072643;28;20052;-78
2021/03/02 03:41:10;;;;;;;27.25;13.20;;;;;;;0.90;62.61;97739.94;5072810;28;20032;-78
2021/03/02 03:43:36;;;;;;;26.60;13.25;;;;;;;0.88;62.50;97736.66;5073255;28;20040;-78
2021/03/02 03:46:02;;;;;;;24.67;13.07;;;;;;;0.85;62.85;97739.50;5073201;28;20051;-78
2021/03/02 03:48:29;;;;;;;28.45;13.80;;;;;;;0.83;63.15;97735.41;5073377;28;20051;-78
2021/03/02 03:50:56;;;;;;;25.40;13.90;;;;;;;0.79;63.17;97729.66;5072725;28;20040;-79
2021/03/02 03:53:23;;;;;;;25.17;12.30;;;;;;;0.79;63.25;97735.66;5073043;28;20041;-78
2021/03/02 03:55:52;;;;;;;22.20;12.55;;;;;;;0.78;63.25;97741.78;5062938;28;20032;-78
2021/03/02 03:58:22;;;;;;;23.83;11.68;;;;;;;0.75;63.43;97734.25;5072947;28;20472;-78
2021/03/02 04:00:51;;;;;;;22.33;12.85;;;;;;;0.73;63.35;97738.72;5072909;28;20503;-78
2021/03/02 04:03:19;;;;;;;22.90;11.93;;;;;;;0.72;63.31;97746.63;5076760;28;20032;-78
2021/03/02 04:05:46;;;;;;;20.30;11.65;;;;;;;0.70;63.41;97744.16;5076702;28;20033;-78
2021/03/02 04:08:14;;;;;;;22.08;12.70;;;;;;;0.69;63.39;97744.28;5076422;28;20032;-78
2021/03/02 04:10:41;;;;;;;22.45;11.98;;;;;;;0.66;63.45;97745.34;5076368;28;20060;-78
2021/03/02 04:13:10;;;;;;;22.45;11.90;;;;;;;0.64;63.77;97749.81;5076699;28;20391;-78
2021/03/02 04:15:37;;;;;;;24.58;12.70;;;;;;;0.61;63.48;97755.22;5076618;28;20035;-78
2021/03/02 04:18:12;;;;;;;23.52;13.40;;;;;;;0.59;64.21;97754.53;5076546;28;20041;-78
2021/03/02 04:20:39;;;;;;;21.63;12.82;;;;;;;0.51;63.79;97747.38;5076154;28;20040;-78
2021/03/02 04:23:06;;;;;;;20.73;12.18;;;;;;;0.50;63.93;97755.25;5075786;28;20503;-78
2021/03/02 04:25:32;;;;;;;22.98;12.18;;;;;;;0.49;63.86;97753.63;5076494;28;20036;-78
2021/03/02 04:28:00;;;;;;;25.63;13.32;;;;;;;0.51;64.17;97755.13;5076279;28;20047;-78
2021/03/02 04:30:26;;;;;;;24.55;12.40;;;;;;;0.49;64.08;97757.00;5076019;28;20040;-78
2021/03/02 04:32:53;;;;;;;22.42;12.52;;;;;;;0.48;63.92;97755.34;5076202;28;20039;-78
2021/03/02 04:35:19;;;;;;;24.13;12.43;;;;;;;0.46;64.03;97757.25;5075004;28;20040;-78
2021/03/02 04:37:46;;;;;;;22.25;12.55;;;;;;;0.45;64.09;97759.97;5076215;28;20040;-78
2021/03/02 04:40:13;;;;;;;21.20;11.48;;;;;;;0.42;64.25;97760.19;5074915;28;20041;-78
2021/03/02 04:42:40;;;;;;;20.80;11.75;;;;;;;0.42;64.20;97766.19;5076133;28;20033;-78
2021/03/02 04:45:08;;;;;;;23.77;12.32;;;;;;;0.40;64.30;97763.72;5075805;28;20041;-78
2021/03/02 04:47:35;;;;;;;24.20;11.77;;;;;;;0.38;64.21;97770.78;5076083;28;20032;-78
2021/03/02 04:50:04;;;;;;;25.63;11.48;;;;;;;0.35;64.52;97765.03;5075931;28;20499;-78
2021/03/02 04:52:30;;;;;;;25.23;12.63;;;;;;;0.30;64.23;97767.16;5074159;28;20052;-78
2021/03/02 04:54:56;;;;;;;23.88;12.35;;;;;;;0.27;64.20;97769.97;5075628;28;20492;-79
2021/03/02 04:57:23;;;;;;;22.95;12.10;;;;;;;0.27;64.23;97764.81;5075812;28;20476;-78
2021/03/02 04:59:49;;;;;;;20.55;11.85;;;;;;;0.25;64.31;97770.06;5075686;28;20036;-79
2021/03/02 05:02:15;;;;;;;21.73;12.10;;;;;;;0.22;64.24;97765.16;5076040;28;20051;-78
2021/03/02 05:04:42;;;;;;;23.77;12.10;;;;;;;0.17;64.24;97768.13;5075462;28;20044;-79
2021/03/02 05:07:09;;;;;;;23.73;12.65;;;;;;;0.15;64.31;97770.00;5075700;28;20040;-78
2021/03/02 05:09:35;;;;;;;21.52;11.98;;;;;;;0.14;64.44;97776.09;5074399;28;20048;-78
2021/03/02 05:12:02;;;;;;;23.42;11.77;;;;;;;0.11;64.52;97766.00;5075227;28;20052;-79
2021/03/02 05:14:28;;;;;;;23.75;12.88;;;;;;;0.10;64.54;97768.69;5075126;28;20040;-78
2021/03/02 05:16:54;;;;;;;22.35;12.95;;;;;;;0.09;64.73;97769.66;5076113;28;20032;-79
2021/03/02 05:19:20;;;;;;;28.77;13.98;;;;;;;0.10;64.73;97776.44;5075622;28;20472;-79
2021/03/02 05:21:46;;;;;;;25.42;13.48;;;;;;;0.08;64.65;97771.41;5075367;28;20047;-79
2021/03/02 05:24:13;;;;;;;23.33;12.98;;;;;;;0.06;64.88;97767.31;5075458;28;20041;-78
2021/03/02 05:26:39;;;;;;;25.38;12.55;;;;;;;0.05;64.88;97776.81;5075166;28;20036;-78
2021/03/02 05:29:06;;;;;;;24.55;13.10;;;;;;;0.02;64.94;97769.28;5074940;28;20047;-78
2021/03/02 05:31:32;;;;;;;25.13;13.18;;;;;;;0.01;64.94;97775.41;5074597;28;20045;-78
2021/03/02 05:33:58;;;;;;;25.80;13.80;;;;;;;-0.01;64.90;97764.38;5075026;28;20045;-78
2021/03/02 05:36:24;;;;;;;25.90;13.65;;;;;;;-0.03;64.68;97774.00;5075224;28;20037;-78
2021/03/02 05:38:50;;;;;;;26.92;14.05;;;;;;;-0.06;64.92;97767.31;5075077;28;20377;-79
2021/03/02 05:41:17;;;;;;;26.80;13.50;;;;;;;-0.09;64.83;97761.56;5074778;28;20043;-78
2021/03/02 05:43:44;;;;;;;23.35;13.15;;;;;;;-0.10;64.90;97775.41;5073812;28;20036;-78
2021/03/02 05:46:11;;;;;;;22.75;12.80;;;;;;;-0.12;64.98;97772.94;5075189;28;20044;-79
2021/03/02 05:48:41;;;;;;;25.10;13.48;;;;;;;-0.12;65.06;97778.09;5074152;28;20389;-79
2021/03/02 05:51:11;;;;;;;25.83;13.35;;;;;;;-0.13;65.17;97775.63;5074707;28;20032;-79
2021/03/02 05:53:38;;;;;;;24.85;13.10;;;;;;;-0.16;65.11;97774.13;5074172;28;20040;-78
2021/03/02 05:56:06;;;;;;;25.55;12.70;;;;;;;-0.15;65.03;97782.66;5075031;28;20396;-79
2021/03/02 05:58:34;;;;;;;25.05;13.15;;;;;;;-0.16;65.04;97779.28;5075079;28;20468;-79
2021/03/02 06:01:00;;;;;;;28.38;14.30;;;;;;;-0.16;65.43;97779.28;5074681;28;20041;-79
2021/03/02 06:03:26;;;;;;;27.50;13.90;;;;;;;-0.19;65.61;97774.34;5074337;28;20477;-79
2021/03/02 06:05:56;;;;;;;26.70;13.73;;;;;;;-0.18;65.60;97767.44;5074450;28;20361;-78
2021/03/02 06:08:22;;;;;;;23.77;13.40;;;;;;;-0.17;65.36;97779.38;5073835;28;20055;-78
2021/03/02 06:10:48;;;;;;;26.75;14.52;;;;;;;-0.19;65.37;97771.75;5079729;28;20048;-79
2021/03/02 06:13:24;;;;;;;26.20;14.20;;;;;;;-0.21;65.63;97778.78;5073210;28;20044;-78
2021/03/02 06:15:57;;;;;;;26.73;13.23;;;;;;;-0.24;65.27;97782.44;5074610;28;20400;-79
2021/03/02 06:18:24;;;;;;;26.67;14.40;;;;;;;-0.26;65.10;97780.91;5074402;28;20036;-79
2021/03/02 06:20:51;;;;;;;26.65;13.85;;;;;;;-0.27;65.37;97780.09;5073974;28;20040;-79
2021/03/02 06:23:29;;;;;;;29.70;13.77;;;;;;;-0.27;65.79;97782.69;5074153;28;20040;-79
2021/03/02 06:26:24;;;;;;;26.48;13.88;;;;;;;-0.29;66.11;97789.72;5073053;28;20044;-79
2021/03/02 06:29:00;;;;;;;29.70;13.23;;;;;;;-0.28;65.86;97785.38;5065864;28;20040;-79
2021/03/02 06:31:34;;;;;;;27.23;14.35;;;;;;;-0.27;65.99;97794.75;5074180;28;20036;-78
2021/03/02 06:34:18;;;;;;;25.05;13.73;;;;;;;-0.28;66.03;97798.25;5074187;28;20110;-79
2021/03/02 06:36:53;;;;;;;25.33;13.82;;;;;;;-0.25;65.79;97798.03;5072920;28;20040;-78
2021/03/02 06:39:33;;;;;;;31.42;14.40;;;;;;;0.04;65.73;97802.72;5073760;28;20029;-78
2021/03/02 06:42:20;;;;;;;28.10;14.00;;;;;;;0.95;65.31;97802.41;5073970;28;20036;-79
2021/03/02 06:44:54;;;;;;;26.30;14.63;;;;;;;1.85;65.27;97806.22;5072558;28;20041;-78
2021/03/02 06:47:30;;;;;;;29.52;14.70;;;;;;;2.71;63.28;97804.03;5073840;28;20036;-79
2021/03/02 06:49:57;;;;;;;27.80;14.40;;;;;;;3.44;63.79;97801.81;5073500;28;20040;-78
2021/03/02 06:52:23;;;;;;;29.75;14.43;;;;;;;4.10;62.73;97794.13;5074048;28;20040;-79
2021/03/02 06:54:50;;;;;;;28.35;14.55;;;;;;;4.70;61.87;97794.44;5073570;28;20037;-79
2021/03/02 06:57:22;;;;;;;26.25;14.40;;;;;;;5.28;59.56;97782.78;5073450;28;20059;-79
2021/03/02 06:59:56;;;;;;;25.48;14.13;;;;;;;5.79;57.59;97767.31;5073681;28;20040;-79
2021/03/02 07:02:40;;;;;;;26.75;15.10;;;;;;;6.21;56.33;97762.16;5073590;28;20469;-79
2021/03/02 07:05:15;;;;;;;23.45;13.80;;;;;;;6.56;55.65;97765.53;5072063;28;20041;-79
2021/03/02 07:07:43;;;;;;;26.80;13.95;;;;;;;6.91;57.34;97767.03;5073195;28;20472;-79
2021/03/02 07:10:12;;;;;;;24.23;13.30;;;;;;;7.29;56.83;97769.97;5073392;28;20056;-79
2021/03/02 07:12:42;;;;;;;24.35;13.77;;;;;;;7.63;56.03;97760.31;5073204;28;20045;-79
2021/03/02 07:15:11;;;;;;;25.10;14.50;;;;;;;7.80;55.17;97758.47;5073299;28;20477;-79
2021/03/02 07:17:40;;;;;;;21.65;13.75;;;;;;;7.96;54.75;97753.22;5073089;28;20041;-79
2021/03/02 07:20:09;;;;;;;24.33;14.40;;;;;;;8.16;54.11;97751.00;5072541;28;20044;-78
2021/03/02 07:22:37;;;;;;;22.23;13.50;;;;;;;8.17;53.23;97742.19;5072365;28;20499;-78
2021/03/02 07:25:08;;;;;;;21.08;13.65;;;;;;;8.20;53.00;97746.25;5073204;28;20043;-78
2021/03/02 07:27:40;;;;;;;20.83;12.52;;;;;;;8.30;52.11;97739.81;5073446;28;20044;-78
2021/03/02 07:30:08;;;;;;;22.58;13.70;;;;;;;8.48;52.42;97742.22;5073595;28;20047;-78
2021/03/02 07:32:34;;;;;;;22.83;13.38;;;;;;;8.66;52.00;97741.13;5072922;28;20037;-79
2021/03/02 07:35:01;;;;;;;22.63;14.15;;;;;;;8.83;51.42;97734.78;5071767;28;20107;-78
2021/03/02 07:37:28;;;;;;;21.35;13.63;;;;;;;8.81;50.80;97723.69;5076524;28;20044;-78
2021/03/02 07:40:12;;;;;;;21.75;13.57;;;;;;;8.99;47.53;97707.69;5077312;28;20044;-78
2021/03/02 07:42:39;;;;;;;22.83;12.88;;;;;;;9.10;50.11;97728.19;5076794;28;20419;-78
2021/03/02 07:45:13;;;;;;;23.65;14.75;;;;;;;9.12;48.14;97722.78;5077287;28;20461;-78
2021/03/02 07:48:01;;;;;;;;;;;;;;;9.03;46.63;97705.50;5077542;28;20048;-78
2021/03/02 07:50:30;;;;;;;27.90;15.07;;;;;;;9.13;48.79;97732.25;5076535;28;20356;-78
2021/03/02 07:53:24;;;;;;;29.77;17.17;;;;;;;8.96;45.90;97710.66;5076723;28;20040;-78
2021/03/02 07:56:12;;;;;;;26.27;15.60;;;;;;;8.85;46.62;97724.16;5077366;28;20036;-78
2021/03/02 07:58:39;;;;;;;28.13;15.25;;;;;;;8.78;48.57;97739.75;5076706;28;20417;-78
2021/03/02 08:01:23;;;;;;;21.13;14.05;;;;;;;8.79;46.34;97717.00;5076084;28;20044;-77
2021/03/02 08:03:50;;;;;;;23.87;15.17;;;;;;;8.62;48.50;97742.47;5076689;28;20476;-78
2021/03/02 08:06:22;;;;;;;26.40;15.23;;;;;;;8.40;47.33;97730.94;5076891;28;20040;-78
2021/03/02 08:08:50;;;;;;;23.40;15.32;;;;;;;8.45;48.63;97742.56;5069031;28;20056;-78
2021/03/02 08:11:35;;;;;;;24.58;15.18;;;;;;;8.59;47.48;97729.72;5076353;28;20056;-78
2021/03/02 08:14:24;;;;;;;25.58;15.60;;;;;;;8.80;48.01;97729.09;5076132;28;20040;-78
2021/03/02 08:17:06;;;;;;;24.30;15.07;;;;;;;8.78;47.31;97729.28;5076882;28;20043;-78
2021/03/02 08:19:49;;;;;;;38.72;26.45;;;;;;;8.86;47.54;97728.38;5075093;28;20033;-78
2021/03/02 08:22:19;;;;;;;24.35;15.93;;;;;;;8.98;47.49;97736.66;5069294;28;20037;-78
2021/03/02 08:25:02;;;;;;;24.80;15.45;;;;;;;8.98;47.16;97734.84;5076578;28;20048;-78
2021/03/02 08:27:56;;;;;;;24.67;15.02;;;;;;;8.78;46.87;97738.91;5076153;28;20388;-78
2021/03/02 08:30:27;;;;;;;23.13;14.40;;;;;;;8.80;47.37;97744.78;5076618;28;20048;-78
2021/03/02 08:32:55;;;;;;;27.20;15.52;;;;;;;8.85;47.64;97743.28;5076228;28;20040;-78
2021/03/02 08:35:31;;;;;;;24.98;14.88;;;;;;;8.80;46.77;97742.16;5075952;28;20052;-78
2021/03/02 08:37:58;;;;;;;24.58;13.93;;;;;;;8.80;47.21;97750.00;5075712;28;20056;-78
2021/03/02 08:40:31;;;;;;;22.52;14.40;;;;;;;8.85;46.64;97740.66;5076151;28;20032;-78
2021/03/02 08:43:08;;;;;;;25.58;13.98;;;;;;;8.69;46.81;97746.84;5075835;28;20048;-78
2021/03/02 08:45:43;;;;;;;27.65;14.68;;;;;;;8.82;47.20;97758.50;5075560;28;20056;-78
2021/03/02 08:48:17;;;;;;;26.30;14.57;;;;;;;8.73;47.15;97744.66;5075262;28;20032;-78
2021/03/02 08:50:44;;;;;;;;;;;;;;;8.76;46.99;97748.72;5076319;28;20032;-78
2021/03/02 08:53:38;;;;;;;23.45;14.40;;;;;;;9.03;46.82;97748.22;5075538;28;19916;-78
2021/03/02 08:56:07;;;;;;;29.75;15.73;;;;;;;9.16;47.16;97758.09;5063569;28;20028;-78
2021/03/02 08:58:37;;;;;;;24.75;14.05;;;;;;;9.14;47.00;97752.22;5075926;28;20028;-78
2021/03/02 09:01:30;;;;;;;22.73;14.10;;;;;;;9.00;46.93;97742.53;5075802;28;20049;-78
2021/03/02 09:04:07;;;;;;;20.92;14.25;;;;;;;8.97;46.61;97745.50;5062595;28;20052;-78
2021/03/02 09:06:34;;;;;;;27.15;15.30;;;;;;;8.70;47.13;97756.28;5075555;28;20376;-77
2021/03/02 09:09:12;;;;;;;26.05;15.30;;;;;;;8.68;47.77;97755.66;5075603;28;20057;-77
2021/03/02 09:11:41;;;;;;;27.30;15.25;;;;;;;8.71;47.73;97763.16;5075484;28;20048;-77
2021/03/02 09:14:11;;;;;;;25.08;15.20;;;;;;;8.59;47.91;97755.88;5075249;28;20392;-78
2021/03/02 09:16:38;;;;;;;23.58;15.00;;;;;;;8.40;47.87;97764.94;5074483;28;20035;-77
2021/03/02 09:19:28;;;;;;;24.85;15.10;;;;;;;8.27;48.36;97770.72;5075907;28;20032;-77
2021/03/02 09:22:05;;;;;;;23.83;15.07;;;;;;;8.41;49.23;97782.28;5075111;28;20032;-77
2021/03/02 09:24:38;;;;;;;28.35;14.95;;;;;;;8.40;48.70;97768.38;5075240;28;20058;-77
2021/03/02 09:27:13;;;;;;;28.42;15.60;;;;;;;8.47;48.94;97771.94;5065907;28;20043;-77
2021/03/02 09:29:42;;;;;;;29.38;15.15;;;;;;;8.50;49.06;97781.25;5075190;28;20045;-77
2021/03/02 09:32:10;;;;;;;26.85;15.45;;;;;;;8.58;49.01;97785.63;5075260;28;20041;-77
2021/03/02 09:34:39;;;;;;;26.83;15.80;;;;;;;8.50;49.05;97792.53;5075024;28;20044;-77
2021/03/02 09:37:08;;;;;;;27.50;14.35;;;;;;;8.59;49.27;97792.47;5075275;28;20041;-77
2021/03/02 09:39:36;;;;;;;27.23;16.05;;;;;;;8.56;49.22;97790.22;5074808;28;20389;-77
2021/03/02 09:42:15;;;;;;;27.60;15.52;;;;;;;8.68;50.00;97792.25;5075085;28;20067;-77
2021/03/02 09:44:53;;;;;;;24.05;16.17;;;;;;;8.89;49.51;97785.59;5075314;28;20036;-78
2021/03/02 09:47:34;;;;;;;27.05;15.52;;;;;;;8.97;49.16;97782.94;5074787;28;20068;-77
2021/03/02 09:50:03;;;;;;;24.25;15.20;;;;;;;9.09;49.30;97781.53;5059401;28;20055;-77
2021/03/02 09:52:49;;;;;;;24.55;15.85;;;;;;;9.18;49.47;97784.91;5074748;28;20040;-77
2021/03/02 09:55:19;;;;;;;25.42;16.25;;;;;;;9.22;48.85;97777.50;5074736;28;20392;-77
2021/03/02 09:57:49;;;;;;;25.08;15.77;;;;;;;9.25;48.81;97782.41;5074583;28;20401;-77
2021/03/02 10:00:18;;;;;;;24.30;15.65;;;;;;;9.29;49.09;97784.47;5074217;28;20040;-77
2021/03/02 10:02:59;;;;;;;28.10;15.40;;;;;;;9.46;49.12;97782.53;5074143;28;20039;-77
2021/03/02 10:05:33;;;;;;;27.52;15.95;;;;;;;9.73;49.25;97782.94;5074291;28;20044;-77
2021/03/02 10:08:17;;;;;;;27.50;15.57;;;;;;;9.90;48.33;97768.66;5074608;28;20055;-77
2021/03/02 10:10:44;;;;;;;24.90;15.73;;;;;;;9.91;48.56;97778.16;5073575;28;20052;-77
2021/03/02 10:13:10;;;;;;;28.00;16.08;;;;;;;9.90;48.76;97776.53;5074778;28;20044;-77
2021/03/02 10:15:37;;;;;;;26.60;16.80;;;;;;;9.94;48.57;97777.78;5073531;28;20045;-77
2021/03/02 10:18:25;;;;;;;26.23;16.38;;;;;;;9.93;47.94;97767.47;5074074;28;20041;-77
2021/03/02 10:21:06;;;;;;;26.08;15.10;;;;;;;10.00;47.07;97772.84;5073465;28;20060;-77
2021/03/02 10:23:33;;;;;;;25.80;15.80;;;;;;;10.03;48.51;97777.72;5073396;28;20048;-77
2021/03/02 10:25:59;;;;;;;21.95;14.93;;;;;;;10.19;48.75;97782.75;5074031;28;20032;-77
2021/03/02 10:28:31;;;;;;;27.17;16.30;;;;;;;10.36;47.50;97778.16;5074176;28;20028;-77
2021/03/02 10:30:58;;;;;;;24.98;15.45;;;;;;;10.42;48.07;97781.88;5073977;28;20032;-77
2021/03/02 10:33:24;;;;;;;25.67;14.98;;;;;;;10.55;47.97;97785.44;5073351;28;20045;-77
2021/03/02 10:35:51;;;;;;;36.30;15.75;;;;;;;10.67;47.68;97783.16;5073366;28;20064;-77
2021/03/02 10:38:17;;;;;;;23.27;14.57;;;;;;;10.76;47.64;97786.47;5073736;28;20044;-77
2021/03/02 10:40:44;;;;;;;22.58;14.75;;;;;;;10.95;47.60;97780.63;5073873;28;20416;-77
2021/03/02 10:43:10;;;;;;;25.08;14.82;;;;;;;11.19;47.34;97781.22;5073778;28;20045;-77
2021/03/02 10:45:37;;;;;;;21.48;13.90;;;;;;;11.22;46.65;97777.44;5073563;28;20041;-78
2021/03/02 10:48:04;;;;;;;20.90;14.88;;;;;;;11.31;46.51;97779.72;5073713;28;20506;-77
2021/03/02 10:50:30;;;;;;;21.35;14.82;;;;;;;11.40;46.49;97774.34;5073411;28;20032;-77
2021/03/02 10:52:57;;;;;;;22.33;13.23;;;;;;;11.56;46.91;97790.63;5073052;28;20110;-76
2021/03/02 10:55:24;;;;;;;16.23;10.80;;;;;;;11.87;47.37;97786.81;5073632;28;20404;-76
2021/03/02 10:58:18;;;;;;;17.10;12.10;;;;;;;12.35;47.01;97776.38;5073647;28;20483;-77
2021/03/02 11:00:45;;;;;;;18.38;11.93;;;;;;;12.61;46.24;97772.19;5073041;28;20039;-77
2021/03/02 11:03:11;;;;;;;16.75;11.60;;;;;;;12.99;46.19;97776.94;5073612;28;20059;-77
2021/03/02 11:05:38;;;;;;;20.15;12.45;;;;;;;13.35;46.08;97768.69;5073326;28;20044;-77
2021/03/02 11:08:05;;;;;;;26.73;15.52;;;;;;;13.65;45.12;97760.38;5073462;28;20052;-77
2021/03/02 11:10:31;;;;;;;22.10;11.75;;;;;;;13.75;45.05;97770.50;5072440;28;20060;-77
2021/03/02 11:12:58;;;;;;;19.98;14.18;;;;;;;13.99;44.39;97795.41;5073936;28;20056;-77
2021/03/02 11:15:24;;;;;;;22.33;15.10;;;;;;;14.07;43.64;97818.09;5073190;28;20029;-77
2021/03/02 11:17:50;;;;;;;22.75;15.40;;;;;;;14.13;43.23;97812.84;5073352;28;20043;-77
2021/03/02 11:20:17;;;;;;;23.15;15.32;;;;;;;14.04;42.62;97800.88;5073193;28;20039;-77
2021/03/02 11:22:43;;;;;;;19.40;14.68;;;;;;;13.91;42.14;97803.53;5073165;28;20369;-77
2021/03/02 11:25:17;;;;;;;24.92;15.27;;;;;;;13.74;41.63;97797.88;5073257;28;20496;-77
2021/03/02 11:27:47;;;;;;;19.33;14.13;;;;;;;13.69;41.60;97802.94;5073767;28;20052;-77
2021/03/02 11:30:15;;;;;;;20.10;14.05;;;;;;;13.79;41.41;97796.22;5072965;28;20464;-77
2021/03/02 11:32:42;;;;;;;20.65;14.32;;;;;;;13.72;40.87;97792.81;5072625;28;20484;-77
2021/03/02 11:35:09;;;;;;;21.38;14.65;;;;;;;13.80;40.62;97789.16;5073159;28;20036;-77
2021/03/02 11:37:37;;;;;;;21.88;14.90;;;;;;;13.90;40.47;97791.34;5072913;28;20024;-77
2021/03/02 11:40:09;;;;;;;22.67;14.75;;;;;;;14.01;39.15;97774.91;5073044;28;20052;-77